• Join FlightAware (Why Join?)
  • Login
  • US Flag 
10:58AM EDT


 

Airport Tracker/Info


-or-


 

Live Flight TrackerFlight Track Log ✈ AAL22 ✈ 22-Apr-2012 ✈ KLAX - KJFK

Flight Track Log - Related Links

Times and Time Zones

All times are in EDT time to prevent confusion due to time zone crossing. See the AAL22 flight status page for this flight to view local times or setup timezone preferences in your user account.

Time Position Orientation Groundspeed Altitude Reporting Facility
EDT Latitude Longitude Course Direction KTS MPH feet Rate Location/Type
06:06PM 33.9619 -118.3796 246° West  Level FlightAware Approximate
06:07PM 34.0218 -118.2543 243° Southwest  Level FlightAware Approximate
06:08PM 33.9139 -118.5092 203° Southwest 188 216 3,200  Level Los Angeles Center
06:09PM 33.8572 -118.5375 84° East 221 254 6,300 2,640 Climbing Los Angeles Center
06:10PM 33.8625 -118.4778 28° Northeast 101 116 8,500 2,220 Climbing Los Angeles Center
06:11PM 33.9342 -118.4322 51° Northeast 117 135 10,800 2,280 Climbing Los Angeles Center
06:12PM 33.9858 -118.3558 58° Northeast 224 258 13,100 1,500 Climbing Los Angeles Center
06:13PM 34.0333 -118.2644 56° Northeast 268 308 13,800 1,200 Climbing Los Angeles Center
06:14PM 34.1044 -118.1358 55° Northeast 365 420 15,500 1,980 Climbing Los Angeles Center
06:15PM 34.1711 -118.0194 55° Northeast 397 457 17,800 2,100 Climbing Los Angeles Center
06:16PM 34.2417 -117.8953 57° Northeast 419 482 19,800 1,800 Climbing Los Angeles Center
06:17PM 34.2997 -117.7858 56° Northeast 432 497 21,500 1,680 Climbing Los Angeles Center
06:18PM 34.3703 -117.6589 56° Northeast 438 504 23,200 1,740 Climbing Los Angeles Center
06:19PM 34.4428 -117.5292 57° Northeast 450 518 25,000 1,620 Climbing Los Angeles Center
06:20PM 34.5150 -117.3944 56° Northeast 464 534 26,500 1,620 Climbing Los Angeles Center
06:21PM 34.5894 -117.2592 56° Northeast 470 541 28,300 1,980 Climbing Los Angeles Center
06:22PM 34.6700 -117.1114 56° Northeast 476 548 30,500 1,800 Climbing Los Angeles Center
06:23PM 34.7419 -116.9808 56° Northeast 476 548 32,000 1,440 Climbing Los Angeles Center
06:24PM 34.8161 -116.8475 57° Northeast 476 548 33,400 1,320 Climbing Los Angeles Center
06:25PM 34.8878 -116.7139 55° Northeast 476 548 34,700 1,200 Climbing Los Angeles Center
06:26PM 34.9611 -116.5850 48° Northeast 476 548 35,900 1,080 Climbing Los Angeles Center
06:27PM 35.0492 -116.4664 46° Northeast 471 542 36,900 540 Climbing Los Angeles Center
06:28PM 35.1392 -116.3525 45° Northeast 461 531 37,000  Climbing Los Angeles Center
06:29PM 35.2333 -116.2383 46° Northeast 461 531 37,000  Level Los Angeles Center
06:30PM 35.3231 -116.1239 46° Northeast 467 537 37,000  Level Los Angeles Center
06:31PM 35.4128 -116.0092 46° Northeast 467 537 37,000  Level Los Angeles Center
06:32PM 35.5025 -115.8942 46° Northeast 467 537 37,000  Level Los Angeles Center
06:33PM 35.5919 -115.7792 46° Northeast 467 537 37,000  Level Los Angeles Center
06:34PM 35.6833 -115.6611 51° Northeast 467 537 37,000  Level Los Angeles Center
06:35PM 35.7661 -115.5350 52° Northeast 467 537 37,000  Level Los Angeles Center
06:36PM 35.8469 -115.4089 53° Northeast 467 537 37,000  Level Los Angeles Center
06:37PM 35.9253 -115.2800 52° Northeast 467 537 37,000  Level Los Angeles Center
06:38PM 36.0078 -115.1508 52° Northeast 467 537 37,000  Level Los Angeles Center
06:39PM 36.0881 -115.0239 53° Northeast 467 537 37,000  Level Los Angeles Center
06:40PM 36.1683 -114.8917 52° Northeast 467 537 37,000  Level Los Angeles Center
06:41PM 36.2461 -114.7669 53° Northeast 467 537 37,000  Level Los Angeles Center
06:42PM 36.3261 -114.6367 54° Northeast 467 537 37,000  Level Los Angeles Center
06:43PM 36.4036 -114.5061 53° Northeast 467 537 37,000  Level Los Angeles Center
06:44PM 36.4831 -114.3756 54° Northeast 467 537 37,000  Level Los Angeles Center
06:45PM 36.5606 -114.2444 53° Northeast 467 537 37,000  Level Los Angeles Center
06:46PM 36.6378 -114.1158 54° Northeast 467 537 37,000  Level Los Angeles Center
06:47PM 36.7147 -113.9819 54° Northeast 467 537 37,000  Level Los Angeles Center
06:48PM 36.7917 -113.8500 53° Northeast 467 537 37,000  Level Los Angeles Center
06:49PM 36.8706 -113.7206 54° Northeast 467 537 37,000  Level Los Angeles Center
06:50PM 36.9469 -113.5883 54° Northeast 467 537 37,000  Level Los Angeles Center
06:51PM 37.0233 -113.4561 54° Northeast 467 537 37,000  Level Los Angeles Center
06:53PM 37.1822 -113.1794 54° Northeast 474 545 37,000  Level Salt Lake Center
06:54PM 37.2608 -113.0442 54° Northeast 474 545 37,000  Level Salt Lake Center
06:55PM 37.3383 -112.9094 54° Northeast 473 544 37,000  Level Salt Lake Center
06:56PM 37.4153 -112.7744 54° Northeast 474 545 37,000  Level Salt Lake Center
06:57PM 37.4925 -112.6403 53° Northeast 476 548 37,000  Level Salt Lake Center
06:58PM 37.5711 -112.5069 54° Northeast 475 547 37,000  Level Salt Lake Center
06:59PM 37.6492 -112.3700 54° Northeast 476 548 37,000  Level Salt Lake Center
07:00PM 37.7278 -112.2331 54° Northeast 476 548 37,000  Level Salt Lake Center
07:01PM 37.8069 -112.0969 54° Northeast 475 547 37,000  Level Salt Lake Center
07:02PM 37.8864 -111.9603 54° Northeast 476 548 37,000  Level Salt Lake Center
07:03PM 37.9656 -111.8236 54° Northeast 475 547 37,000  Level Salt Lake Center
07:04PM 38.0447 -111.6867 54° Northeast 475 547 37,000  Level Salt Lake Center
07:05PM 38.1400 -111.5219 54° Northeast 475 547 37,000  Level Salt Lake Center
07:06PM 38.2186 -111.3839 54° Northeast 474 545 37,000  Level Salt Lake Center
07:08PM 38.2961 -111.2461 54° Northeast 473 544 37,000  Level Salt Lake Center
07:09PM 38.3736 -111.1075 54° Northeast 473 544 37,000  Level Salt Lake Center
07:10PM 38.4517 -110.9692 55° Northeast 473 544 37,000  Level Salt Lake Center
07:11PM 38.5294 -110.8278 55° Northeast 472 543 37,000  Level Salt Lake Center
07:12PM 38.6022 -110.6969 55° Northeast 471 542 37,000  Level Salt Lake Center
07:13PM 38.6872 -110.5433 55° Northeast 473 544 37,000  Level Salt Lake Center
07:14PM 38.7589 -110.4108 55° Northeast 473 544 37,000  Level Salt Lake Center
07:15PM 38.8439 -110.2575 55° Northeast 473 544 37,000  Level Salt Lake Center
07:16PM 38.9158 -110.1258 55° Northeast 471 542 37,000  Level Salt Lake Center
07:17PM 38.9875 -109.9922 55° Northeast 473 544 37,000  Level Salt Lake Center
07:18PM 39.0708 -109.8378 55° Northeast 471 542 37,000  Level Salt Lake Center
07:19PM 39.1428 -109.7039 55° Northeast 473 544 37,000  Level Salt Lake Center
07:20PM 39.2258 -109.5483 56° Northeast 472 543 37,000  Level Salt Lake Center
07:21PM 39.2969 -109.4142 56° Northeast 472 543 37,000  Level Salt Lake Center
07:22PM 39.3794 -109.2578 56° Northeast 472 543 37,000  Level Salt Lake Center
07:23PM 39.4497 -109.1244 56° Northeast 470 541 37,000  Level Salt Lake Center
07:24PM 39.5314 -108.9697 56° Northeast 468 539 37,000  Level Salt Lake Center
07:25PM 39.5997 -108.8378 55° Northeast 466 536 37,000  Level Salt Lake Center
07:26PM 39.6806 -108.6853 56° Northeast 468 539 37,000  Level Salt Lake Center
07:27PM 39.7606 -108.5317 56° Northeast 481 554 37,000  Level Denver Center
07:28PM 39.8406 -108.3772 56° Northeast 474 545 37,000  Level Denver Center
07:29PM 39.9114 -108.2383 56° Northeast 474 545 37,000  Level Denver Center
07:30PM 39.9781 -108.1100 56° Northeast 474 545 37,000  Level Denver Center
07:31PM 40.0508 -107.9681 70° East 474 545 37,000  Level Denver Center
07:32PM 40.1011 -107.7872 73° East 474 545 37,000  Level Denver Center
07:33PM 40.1403 -107.6222 74° East 474 545 37,000  Level Denver Center
07:34PM 40.1731 -107.4706 73° East 480 552 37,000  Level Denver Center
07:35PM 40.2119 -107.3000 74° East 474 545 37,000  Level Denver Center
07:36PM 40.2506 -107.1181 74° East 474 545 37,000  Level Denver Center
07:37PM 40.2869 -106.9525 73° East 474 545 37,000  Level Denver Center
07:38PM 40.3250 -106.7892 73° East 467 537 37,000  Level Denver Center
07:39PM 40.3586 -106.6450 75° East 467 537 37,000  Level Denver Center
07:40PM 40.3964 -106.4569 73° East 467 537 37,000  Level Denver Center
07:41PM 40.4358 -106.2906 75° East 473 544 37,000  Level Denver Center
07:42PM 40.4689 -106.1239 75° East 468 539 37,000  Level Denver Center
07:43PM 40.4994 -105.9736 73° East 468 539 37,000  Level Denver Center
07:44PM 40.5383 -105.8039 75° East 474 545 37,000  Level Denver Center
07:45PM 40.5728 -105.6342 74° East 474 545 37,000  Level Denver Center
07:46PM 40.6089 -105.4639 74° East 474 545 37,000  Level Denver Center
07:47PM 40.6447 -105.2939 75° East 474 545 37,000  Level Denver Center
07:48PM 40.6825 -105.1097 74° East 474 545 37,000  Level Denver Center
07:49PM 40.7178 -104.9419 75° East 474 545 37,000  Level Denver Center
07:50PM 40.7531 -104.7711 75° East 474 545 37,000  Level Denver Center
07:51PM 40.7858 -104.6056 75° East 468 539 37,000  Level Denver Center
07:52PM 40.8206 -104.4344 76° East 473 544 37,000  Level Denver Center
07:53PM 40.8528 -104.2689 75° East 473 544 37,000  Level Denver Center
07:54PM 40.8872 -104.1003 76° East 473 544 37,000  Level Denver Center
07:55PM 40.9172 -103.9453 75° East 473 544 37,000  Level Denver Center
07:56PM 40.9508 -103.7789 78° East 468 539 37,000  Level Denver Center
07:57PM 40.9819 -103.5906 76° East 468 539 37,000  Level Denver Center
07:58PM 41.0150 -103.4186 77° East 477 549 37,000  Level Denver Center
07:59PM 41.0422 -103.2658 77° East 465 535 37,000  Level Denver Center
08:00PM 41.0744 -103.0853 76° East 465 535 37,000  Level Denver Center
08:01PM 41.1033 -102.9347 74° East 465 535 37,000  Level Denver Center
08:02PM 41.1414 -102.7536 72° East 465 535 37,000  Level Denver Center
08:03PM 41.1800 -102.5942 75° East 460 529 37,000  Level Denver Center
08:04PM 41.2103 -102.4431 73° East 460 529 37,000  Level Denver Center
08:05PM 41.2483 -102.2778 75° East 460 529 37,000  Level Denver Center
08:06PM 41.2853 -102.0958 75° East 466 536 37,000  Level Denver Center
08:07PM 41.3186 -101.9303 75° East 466 536 37,000  Level Denver Center
08:08PM 41.3517 -101.7647 75° East 466 536 37,000  Level Denver Center
08:09PM 41.3828 -101.6103 74° East 466 536 37,000  Level Denver Center
08:10PM 41.4208 -101.4275 75° East 461 531 37,000  Level Denver Center
08:11PM 41.4550 -101.2586 76° East 461 531 37,000  Level Denver Center
08:12PM 41.4869 -101.0922 74° East 461 531 37,000  Level Denver Center
08:13PM 41.5194 -100.9397 76° East 461 531 37,000  Level Denver Center
08:14PM 41.5511 -100.7733 75° East 461 531 37,000  Level Denver Center
08:15PM 41.5875 -100.5867 76° East 461 531 37,000  Level Denver Center
08:16PM 41.6186 -100.4200 76° East 467 537 37,000  Level Denver Center
08:17PM 41.6461 -100.2672 75° East 467 537 37,000  Level Denver Center
08:18PM 41.6786 -100.1000 76° East 461 531 37,000  Level Denver Center
08:19PM 41.7142 -99.9128 76° East 466 536 37,000  Level Denver Center
08:20PM 41.7461 -99.7422 76° East 459 528 37,000  Level Denver Center
08:21PM 41.7747 -99.5889 76° East 465 535 37,000  Level Denver Center
08:23PM 41.8228 -99.3219 76° East 459 528 37,000  Level Minneapolis Center
08:24PM 41.8547 -99.1522 76° East 459 528 37,000  Level Minneapolis Center
08:25PM 41.8861 -98.9822 77° East 469 540 37,000  Level Minneapolis Center
08:26PM 41.9153 -98.8175 76° East 464 534 37,000  Level Minneapolis Center
08:27PM 41.9464 -98.6472 78° East 464 534 37,000  Level Minneapolis Center
08:28PM 41.9731 -98.4794 76° East 470 541 37,000  Level Minneapolis Center
08:29PM 42.0036 -98.3086 78° East 464 534 37,000  Level Minneapolis Center
08:30PM 42.0325 -98.1211 77° East 469 540 37,000  Level Minneapolis Center
08:31PM 42.0603 -97.9556 77° East 464 534 37,000  Level Minneapolis Center
08:32PM 42.0900 -97.7872 77° East 464 534 37,000  Level Minneapolis Center
08:33PM 42.1172 -97.6214 77° East 464 534 37,000  Level Minneapolis Center
08:34PM 42.1464 -97.4525 78° East 464 534 37,000  Level Minneapolis Center
08:35PM 42.1733 -97.2836 77° East 464 534 37,000  Level Minneapolis Center
08:36PM 42.1969 -97.1394 78° East 464 534 37,000  Level Minneapolis Center
08:37PM 42.2233 -96.9731 77° East 459 528 37,000  Level Minneapolis Center
08:38PM 42.2514 -96.8064 78° East 454 522 37,000  Level Minneapolis Center
08:39PM 42.2772 -96.6425 79° East 449 517 37,000  Level Minneapolis Center
08:40PM 42.3006 -96.4811 78° East 443 510 37,000  Level Minneapolis Center
08:41PM 42.3258 -96.3139 77° East 449 517 37,000  Level Minneapolis Center
08:42PM 42.3531 -96.1497 79° East 449 517 37,000  Level Minneapolis Center
08:43PM 42.3778 -95.9794 79° East 449 517 37,000 180 Level Minneapolis Center
08:44PM 42.4025 -95.8064 79° East 455 524 37,400 540 Climbing Minneapolis Center
08:45PM 42.4269 -95.6358 79° East 462 532 38,100 780 Climbing Minneapolis Center
08:46PM 42.4511 -95.4597 78° East 469 540 39,000 420 Climbing Minneapolis Center
08:47PM 42.4769 -95.2892 80° East 464 534 39,000  Level Minneapolis Center
08:48PM 42.4983 -95.1181 78° East 459 528 39,100  Climbing Minneapolis Center
08:49PM 42.5236 -94.9528 79° East 454 522 39,000 -60 Descending Minneapolis Center
08:50PM 42.5467 -94.7872 80° East 449 517 39,000  Level Minneapolis Center
08:51PM 42.5694 -94.6189 82° East 449 517 39,000  Level Minneapolis Center
08:52PM 42.5878 -94.4333 81° East 449 517 39,000  Level Minneapolis Center
08:53PM 42.6081 -94.2589 89° East 449 517 39,000  Level Minneapolis Center
08:54PM 42.6092 -94.0814 89° East 459 528 39,000  Level Minneapolis Center
08:55PM 42.6103 -93.8981 90° East 470 541 39,000  Level Minneapolis Center
08:57PM 42.6094 -93.5511 89° East 494 568 39,000  Level Chicago Center
08:58PM 42.6119 -93.3650 89° East 494 568 39,000  Level Chicago Center
08:59PM 42.6139 -93.1844 90° East 494 568 39,000  Level Chicago Center
09:00PM 42.6136 -93.0008 90° East 489 563 39,000  Level Chicago Center
09:01PM 42.6133 -92.8147 89° East 489 563 39,000  Level Chicago Center
09:02PM 42.6144 -92.6342 91° East 484 557 39,000  Level Chicago Center
09:03PM 42.6131 -92.4506 91° East 484 557 39,000  Level Chicago Center
09:04PM 42.6117 -92.2669 91° East 484 557 39,000  Level Chicago Center
09:05PM 42.6100 -92.0836 90° East 479 551 39,000  Level Chicago Center
09:06PM 42.6100 -91.9031 91° East 479 551 39,000  Level Chicago Center
09:07PM 42.6072 -91.7392 91° East 479 551 39,000  Level Chicago Center
09:08PM 42.6044 -91.5586 90° East 479 551 39,000  Level Chicago Center
09:09PM 42.6036 -91.3781 91° East 479 551 39,000  Level Chicago Center
09:10PM 42.6003 -91.1975 91° East 479 551 39,000  Level Chicago Center
09:11PM 42.5969 -91.0197 92° East 479 551 39,000  Level Chicago Center
09:12PM 42.5931 -90.8389 91° East 479 551 39,000  Level Chicago Center
09:13PM 42.5911 -90.6614 91° East 479 551 39,000  Level Chicago Center
09:14PM 42.5889 -90.4611 92° East 479 551 39,000  Level Chicago Center
09:15PM 42.5844 -90.2833 93° East 479 551 39,000  Level Chicago Center
09:16PM 42.5772 -90.1028 91° East 479 551 39,000  Level Chicago Center
09:17PM 42.5742 -89.9222 94° East 479 551 39,000  Level Chicago Center
09:18PM 42.5644 -89.7444 92° East 474 545 39,000  Level Chicago Center
09:19PM 42.5586 -89.5669 93° East 474 545 39,000  Level Chicago Center
09:20PM 42.5528 -89.3922 92° East 479 551 39,000  Level Chicago Center
09:21PM 42.5483 -89.2089 94° East 479 551 39,000  Level Chicago Center
09:22PM 42.5397 -89.0314 93° East 474 545 39,000  Level Chicago Center
09:23PM 42.5328 -88.8539 93° East 474 545 39,000  Level Chicago Center
09:24PM 42.5256 -88.6708 92° East 480 552 39,000  Level Chicago Center
09:25PM 42.5203 -88.4933 93° East 480 552 39,000  Level Chicago Center
09:26PM 42.5125 -88.3106 93° East 486 559 39,000  Level Chicago Center
09:27PM 42.5044 -88.1303 93° East 481 554 39,000  Level Chicago Center
09:28PM 42.4983 -87.9558 89° East 478 550 39,000  Level Chicago Center
09:29PM 42.5000 -87.7700 89° East 478 550 39,000  Level Chicago Center
09:30PM 42.5017 -87.5981 90° East 470 541 39,000  Level Chicago Center
09:31PM 42.5011 -87.4208 90° East 465 535 39,000  Level Chicago Center
09:32PM 42.5000 -87.2406 91° East 465 535 39,000  Level Chicago Center
09:33PM 42.4986 -87.0603 90° East 470 541 39,000  Level Chicago Center
09:34PM 42.4992 -86.8828 92° East 475 547 39,000  Level Chicago Center
09:35PM 42.4953 -86.7056 91° East 475 547 39,000  Level Chicago Center
09:36PM 42.4931 -86.5256 92° East 475 547 39,000  Level Chicago Center
09:37PM 42.4883 -86.3483 91° East 475 547 39,000  Level Chicago Center
09:38PM 42.4856 -86.1653 91° East 475 547 39,000  Level Chicago Center
09:39PM 42.4828 -85.9881 91° East 475 547 39,000  Level Chicago Center
09:40PM 42.4792 -85.8053 92° East 475 547 39,000  Level Chicago Center
09:41PM 42.4736 -85.6281 92° East 475 547 39,000  Level Chicago Center
09:43PM 42.4653 -85.2589 91° East 467 537 39,000  Level Cleveland Center
09:44PM 42.4619 -85.0786 92° East 473 544 39,000  Level Cleveland Center
09:45PM 42.4583 -84.9008 93° East 473 544 39,000  Level Cleveland Center
09:46PM 42.4522 -84.7261 91° East 478 550 39,000  Level Cleveland Center
09:47PM 42.4503 -84.5428 95° East 478 550 39,000  Level Cleveland Center
09:48PM 42.4397 -84.3647 95° East 478 550 39,000  Level Cleveland Center
09:49PM 42.4286 -84.1869 94° East 473 544 39,000  Level Cleveland Center
09:50PM 42.4211 -84.0317 95° East 473 544 39,000  Level Cleveland Center
09:51PM 42.4094 -83.8539 95° East 473 544 39,000  Level Cleveland Center
09:52PM 42.3978 -83.6789 94° East 467 537 39,000  Level Cleveland Center
09:53PM 42.3881 -83.4900 95° East 467 537 39,000  Level Cleveland Center
09:54PM 42.3756 -83.3125 95° East 467 537 39,000  Level Cleveland Center
09:55PM 42.3650 -83.1378 95° East 467 537 39,000  Level Cleveland Center
09:56PM 42.3522 -82.9600 95° East 467 537 39,000  Level Cleveland Center
09:57PM 42.3411 -82.7828 96° East 467 537 39,000  Level Cleveland Center
09:58PM 42.3278 -82.6081 96° East 467 537 39,000  Level Cleveland Center
09:59PM 42.3158 -82.4506 96° East 467 537 39,000  Level Cleveland Center
10:00PM 42.3019 -82.2731 96° East 467 537 39,000  Level Cleveland Center
10:01PM 42.2858 -82.0819 96° East 467 537 39,000  Level Cleveland Center
10:02PM 42.2714 -81.9047 96° East 467 537 39,000  Level Cleveland Center
10:03PM 42.2586 -81.7306 97° East 467 537 39,000  Level Cleveland Center
10:04PM 42.2433 -81.5564 97° East 467 537 39,000  Level Cleveland Center
10:05PM 42.2281 -81.3794 97° East 467 537 39,000  Level Cleveland Center
10:06PM 42.2125 -81.2056 96° East 467 537 39,000  Level Cleveland Center
10:07PM 42.1989 -81.0317 98° East 467 537 39,000  Level Cleveland Center
10:08PM 42.1825 -80.8689 97° East 467 537 39,000  Level Cleveland Center
10:09PM 42.1664 -80.6897 97° East 473 544 39,000  Level Cleveland Center
10:10PM 42.1497 -80.5158 97° East 473 544 39,000  Level Cleveland Center
10:11PM 42.1347 -80.3425 98° East 473 544 39,000  Level Cleveland Center
10:12PM 42.1156 -80.1661 97° East 473 544 39,000  Level Cleveland Center
10:13PM 42.0981 -79.9703 97° East 473 544 39,000  Level Cleveland Center
10:14PM 42.0822 -79.7914 99° East 473 544 39,000  Level Cleveland Center
10:15PM 42.0622 -79.6156 97° East 478 550 39,000  Level Cleveland Center
10:16PM 42.0461 -79.4367 98° East 478 550 39,000  Level Cleveland Center
10:17PM 42.0275 -79.2611 98° East 483 556 39,000  Level Cleveland Center
10:18PM 42.0086 -79.0853 98° East 483 556 39,000  Level Cleveland Center
10:19PM 41.9894 -78.9125 98° East 478 550 39,000  Level Cleveland Center
10:20PM 41.9703 -78.7400 99° East 478 550 39,000  Level Cleveland Center
10:21PM 41.9506 -78.5675 99° East 473 544 39,000  Level Cleveland Center
10:23PM 41.9092 -78.2125 99° East 455 524 39,000  Level New York Center
10:24PM 41.8883 -78.0428 99° East 455 524 39,000 -60 Level New York Center
10:25PM 41.8689 -77.8792 108° East 448 516 38,900 -900 Descending New York Center
10:26PM 41.8322 -77.7247 110° East 435 501 37,300 -1,620 Descending New York Center
10:27PM 41.7947 -77.5844 109° East 410 472 35,700 -1,200 Descending New York Center
10:28PM 41.7586 -77.4472 110° East 389 448 35,000 -360 Descending New York Center
10:29PM 41.7206 -77.3075 110° East 394 453 35,000  Level New York Center
10:30PM 41.6858 -77.1817 108° East 400 460 35,000  Level New York Center
10:31PM 41.6500 -77.0339 111° Southeast 400 460 35,000  Level New York Center
10:32PM 41.6092 -76.8942 110° East 400 460 35,000  Level New York Center
10:33PM 41.5689 -76.7489 111° Southeast 400 460 35,000  Level New York Center
10:34PM 41.5297 -76.6125 109° East 394 453 35,000  Level New York Center
10:35PM 41.4928 -76.4708 110° East 399 459 35,000  Level New York Center
10:36PM 41.4483 -76.3119 111° Southeast 399 459 35,000  Level New York Center
10:37PM 41.4125 -76.1872 111° Southeast 399 459 35,000 -600 Level New York Center
10:38PM 41.3675 -76.0317 110° East 406 467 33,800 -1,920 Descending New York Center
10:39PM 41.3278 -75.8903 112° Southeast 400 460 31,300 -2,460 Descending New York Center
10:40PM 41.2858 -75.7492 112° Southeast 399 459 28,900 -2,220 Descending New York Center
10:41PM 41.2439 -75.6081 114° Southeast 405 466 26,900 -2,220 Descending New York Center
10:42PM 41.1972 -75.4697 114° Southeast 405 466 24,500 -1,920 Descending New York Center
10:43PM 41.1544 -75.3397 114° Southeast 395 455 23,000 -780 Descending New York Center
10:44PM 41.1133 -75.2158 114° Southeast 382 440 23,000  Level New York Center
10:45PM 41.0703 -75.0892 114° Southeast 377 434 23,000  Level New York Center
10:46PM 41.0289 -74.9656 112° Southeast 377 434 23,000 -120 Level New York Center
10:47PM 40.9933 -74.8506 98° East 372 428 22,800 -840 Descending New York Center
10:48PM 40.9789 -74.7178 97° East 367 422 21,400 -1,260 Descending New York Center
10:49PM 40.9667 -74.5853 104° East 362 417 20,300 -1,080 Descending New York Center
10:50PM 40.9436 -74.4603 118° Southeast 356 410 19,300 -720 Descending New York Center
10:51PM 40.9000 -74.3500 123° Southeast 339 390 19,000 -180 Descending New York TRACON
10:52PM 40.8500 -74.2500 123° Southeast 328 377 19,000 -180 Level New York TRACON
10:53PM 40.8000 -74.1500 123° Southeast 333 383 18,700 -1,500 Descending New York TRACON
10:54PM 40.7500 -74.0500 119° Southeast 330 380 16,000 -2,340 Descending New York TRACON
10:55PM 40.7000 -73.9333 128° Southeast 319 367 14,100 -1,560 Descending New York TRACON
10:56PM 40.6500 -73.8500 123° Southeast 281 323 12,900 -1,200 Descending New York TRACON
10:57PM 40.6167 -73.7833 154° Southeast 265 305 11,700 -2,460 Descending New York TRACON
10:59PM 40.4919 -73.7019 191° South 227 261 5,200 -2,520 Descending New York Center
11:00PM 40.4333 -73.7167 255° West 209 241 4,200 -1,140 Descending New York TRACON
11:01PM 40.4167 -73.8000 315° West 259 298 3,100 -1,080 Descending New York TRACON
11:02PM 40.4667 -73.8667 360° North 262 302 2,100 -600 Descending New York TRACON
11:03PM 40.5167 -73.8667 37° Northeast 164 189 1,900 -120 Descending New York TRACON
11:04PM 40.5500 -73.8333 37° Northeast 142 163 1,900  Level New York TRACON